This is the latest recevied weather packets stored in our database for station/object OM0AGP-15. If no packets are shown the sender has not sent any weather packets the latest 10 day(s).
| Time | Temp. | Humidity | Pressure | Rain* | Wind** | Luminosity | Snow |
|---|---|---|---|---|---|---|---|
| 1777584676 | 2.22° C | 48% | 1025.8 hPa | - | - | - | - |
| 1777583777 | 1.67° C | 48% | 1026 hPa | - | - | - | - |
| 1777582876 | 1.11° C | 49% | 1025.9 hPa | - | - | - | - |
| 1777581976 | 1.67° C | 48% | 1025.9 hPa | - | - | - | - |
| 1777581076 | 1.11° C | 50% | 1025.8 hPa | - | - | - | - |
| 1777580176 | 1.67° C | 48% | 1025.8 hPa | - | - | - | - |
| 1777579276 | 2.22° C | 46% | 1025.7 hPa | - | - | - | - |
| 1777578376 | 2.78° C | 45% | 1025.6 hPa | - | - | - | - |
| 1777577476 | 3.33° C | 42% | 1025.6 hPa | - | - | - | - |
| 1777576576 | 4.44° C | 40% | 1025.5 hPa | - | - | - | - |
| 1777575676 | 5° C | 38% | 1025.4 hPa | - | - | - | - |
| 1777574776 | 6.11° C | 35% | 1025.1 hPa | - | - | - | - |
| 1777573876 | 6.11° C | 34% | 1025 hPa | - | - | - | - |
| 1777572975 | 6.67° C | 33% | 1024.9 hPa | - | - | - | - |
| 1777572076 | 6.67° C | 33% | 1024.5 hPa | - | - | - | - |
| 1777571175 | 6.67° C | 33% | 1024.4 hPa | - | - | - | - |
| 1777570275 | 6.67° C | 32% | 1024.4 hPa | - | - | - | - |
| 1777569375 | 7.22° C | 32% | 1024.4 hPa | - | - | - | - |
| 1777568475 | 7.22° C | 32% | 1024.3 hPa | - | - | - | - |
| 1777567575 | 7.22° C | 31% | 1024.2 hPa | - | - | - | - |
| 1777566675 | 7.78° C | 31% | 1024.1 hPa | - | - | - | - |
| 1777565775 | 7.78° C | 31% | 1024.3 hPa | - | - | - | - |
| 1777564875 | 7.78° C | 31% | 1024.1 hPa | - | - | - | - |
| 1777563975 | 7.78° C | 30% | 1024.2 hPa | - | - | - | - |
| 1777563075 | 8.33° C | 30% | 1024.4 hPa | - | - | - | - |
* Rain since midnight (hover to see other rain measurements)
** Current wind speed in m/s (hover to see current wind gust speed)